createdAt,value
2019-04-07T00:02:51.957Z,34.23
2019-04-07T00:07:56.706Z,39.27
2019-04-07T00:13:01.530Z,34.53
2019-04-07T00:18:06.662Z,31.63
2019-04-07T00:23:13.128Z,33.67
2019-04-07T00:28:18.434Z,36.77
2019-04-07T00:33:23.279Z,32.97
2019-04-07T00:38:28.367Z,39.30
2019-04-07T00:43:33.345Z,30.17
2019-04-07T00:48:38.630Z,30.50
2019-04-07T00:53:43.438Z,30.67
2019-04-07T00:58:48.737Z,35.07
2019-04-07T01:03:53.506Z,36.13
2019-04-07T01:08:58.199Z,34.27
2019-04-07T01:14:02.984Z,30.67
2019-04-07T01:19:07.778Z,32.47
2019-04-07T01:24:13.171Z,38.90
2019-04-07T01:29:18.471Z,35.27
2019-04-07T01:34:24.025Z,33.80
2019-04-07T01:39:30.555Z,35.20
2019-04-07T01:44:46.127Z,36.77
2019-04-07T01:50:04.717Z,31.70
2019-04-07T01:55:20.350Z,36.07
2019-04-07T02:00:26.734Z,40.63
2019-04-07T02:05:58.666Z,40.60
2019-04-07T02:11:03.066Z,42.10
2019-04-07T02:16:12.326Z,33.47
2019-04-07T02:21:25.086Z,33.03
2019-04-07T02:26:47.146Z,34.77
2019-04-07T02:31:56.336Z,44.23
2019-04-07T02:37:03.237Z,50.00
2019-04-07T02:42:21.562Z,40.40
2019-04-07T02:47:33.574Z,38.07
2019-04-07T02:52:57.101Z,34.03
2019-04-07T02:58:15.785Z,32.67
2019-04-07T03:03:25.064Z,35.80
2019-04-07T03:08:40.166Z,35.20
2019-04-07T03:13:52.519Z,37.43
2019-04-07T03:19:08.806Z,43.27
2019-04-07T03:24:33.689Z,40.17
2019-04-07T03:29:51.465Z,38.37
2019-04-07T03:35:02.810Z,37.53
2019-04-07T03:40:18.446Z,36.50
2019-04-07T03:45:30.903Z,32.47
2019-04-07T03:50:55.413Z,31.77
2019-04-07T03:56:18.290Z,38.00
2019-04-07T04:01:28.346Z,33.80
2019-04-07T04:06:51.531Z,33.27
2019-04-07T04:12:01.318Z,43.13
2019-04-07T04:17:06.442Z,28.27
2019-04-07T04:22:11.607Z,41.23
2019-04-07T04:27:16.996Z,36.67
2019-04-07T04:32:22.279Z,38.13
2019-04-07T04:37:41.225Z,38.50
2019-04-07T04:42:35.584Z,39.83
2019-04-07T04:47:40.702Z,37.30
2019-04-07T04:52:46.816Z,36.70
2019-04-07T04:57:51.720Z,35.47
2019-04-07T05:02:57.209Z,36.63
2019-04-07T05:08:04.482Z,43.50
2019-04-07T05:13:09.520Z,37.90
2019-04-07T05:18:14.906Z,36.63
2019-04-07T05:23:19.692Z,36.77
2019-04-07T05:28:25.542Z,34.30
2019-04-07T05:33:30.808Z,67.00
2019-04-07T05:38:35.738Z,64.87
2019-04-07T05:43:40.591Z,80.40
2019-04-07T05:48:45.392Z,66.47
2019-04-07T05:53:50.135Z,75.60
2019-04-07T05:58:54.933Z,70.40
2019-04-07T06:03:59.980Z,60.07
2019-04-07T06:09:06.558Z,53.73
2019-04-07T06:14:15.084Z,53.30
2019-04-07T06:19:18.593Z,47.57
2019-04-07T06:24:24.396Z,37.23
2019-04-07T06:29:29.159Z,59.53
2019-04-07T06:34:33.945Z,48.27
2019-04-07T06:39:39.091Z,42.83
2019-04-07T06:44:44.571Z,43.20
2019-04-07T06:49:51.030Z,36.10
2019-04-07T06:55:13.790Z,51.57
2019-04-07T07:00:26.049Z,34.80
2019-04-07T07:05:38.780Z,41.03
2019-04-07T07:10:45.613Z,38.90
2019-04-07T07:16:10.135Z,41.53
2019-04-07T07:21:24.623Z,34.93
2019-04-07T07:26:32.989Z,36.70
2019-04-07T07:31:35.961Z,18.03
2019-04-07T07:36:40.824Z,26.40
2019-04-07T07:41:45.694Z,34.13
2019-04-07T07:46:51.649Z,22.73
2019-04-07T07:51:57.033Z,26.03
2019-04-07T07:57:02.420Z,25.57
2019-04-07T08:02:07.586Z,21.60
2019-04-07T08:07:15.480Z,16.77
2019-04-07T08:12:18.866Z,30.50
2019-04-07T08:17:23.868Z,29.33
2019-04-07T08:22:33.746Z,26.33
2019-04-07T08:27:35.507Z,25.13
2019-04-07T08:32:40.981Z,26.77
2019-04-07T08:37:47.766Z,31.93
2019-04-07T08:42:52.375Z,22.60
2019-04-07T08:47:57.142Z,27.03
2019-04-07T08:53:02.096Z,28.57
2019-04-07T08:58:06.934Z,27.20
2019-04-07T09:03:14.733Z,29.40
2019-04-07T09:08:18.091Z,26.13
2019-04-07T09:13:22.896Z,31.70
2019-04-07T09:18:32.279Z,22.80
2019-04-07T09:23:50.903Z,23.67
2019-04-07T09:28:58.733Z,23.53
2019-04-07T09:34:23.328Z,25.50
2019-04-07T09:39:52.806Z,12.90
2019-04-07T09:44:53.779Z,20.63
2019-04-07T09:50:00.510Z,25.73
2019-04-07T09:55:09.426Z,23.97
2019-04-07T10:00:16.044Z,21.70
2019-04-07T10:05:25.053Z,17.27
2019-04-07T10:10:37.170Z,22.00
2019-04-07T10:15:53.245Z,21.48
2019-04-07T10:20:59.920Z,22.07
2019-04-07T10:26:22.821Z,18.50
2019-04-07T10:31:29.467Z,17.30
2019-04-07T10:36:48.570Z,23.25
2019-04-07T10:41:55.295Z,21.00
2019-04-07T10:47:21.040Z,20.60
2019-04-07T10:52:33.930Z,19.57
2019-04-07T10:57:40.364Z,20.32
2019-04-07T11:02:52.775Z,19.98
2019-04-07T11:08:00.804Z,18.17
2019-04-07T11:13:13.735Z,18.12
2019-04-07T11:18:38.806Z,20.82
2019-04-07T11:23:47.793Z,20.08
2019-04-07T11:29:02.993Z,17.52
2019-04-07T11:34:33.198Z,20.90
2019-04-07T11:39:39.637Z,18.25
2019-04-07T11:45:05.017Z,20.05
2019-04-07T11:50:28.003Z,20.40
2019-04-07T11:55:34.446Z,19.23
2019-04-07T12:00:51.410Z,16.85
2019-04-07T12:06:14.214Z,13.78
2019-04-07T12:11:22.229Z,15.35
2019-04-07T12:16:35.071Z,17.75
2019-04-07T12:21:53.550Z,17.23
2019-04-07T12:27:08.949Z,20.85
2019-04-07T12:32:18.110Z,19.90
2019-04-07T12:37:37.344Z,15.18
2019-04-07T12:42:44.771Z,17.45
2019-04-07T12:48:07.729Z,19.67
2019-04-07T12:53:26.399Z,15.63
2019-04-07T12:58:44.045Z,16.77
2019-04-07T13:03:47.894Z,18.00
2019-04-07T13:08:58.183Z,15.93
2019-04-07T13:14:09.986Z,14.80
2019-04-07T13:19:19.882Z,15.78
2019-04-07T13:24:39.227Z,13.03
2019-04-07T13:29:49.928Z,12.55
2019-04-07T13:35:05.529Z,17.00
2019-04-07T13:40:15.789Z,16.37
2019-04-07T13:45:22.863Z,15.18
2019-04-07T13:50:31.101Z,14.47
2019-04-07T13:55:42.685Z,12.88
2019-04-07T14:00:48.520Z,17.07
2019-04-07T14:05:55.031Z,11.60
2019-04-07T14:11:04.353Z,12.13
2019-04-07T14:16:26.926Z,12.28
2019-04-07T14:21:39.626Z,12.93
2019-04-07T14:26:48.962Z,18.50
2019-04-07T14:32:04.511Z,11.80
2019-04-07T14:37:11.018Z,14.58
2019-04-07T14:42:17.673Z,11.95
2019-04-07T14:47:33.973Z,9.78
2019-04-07T14:52:43.389Z,12.23
2019-04-07T14:57:53.567Z,9.30
2019-04-07T15:02:58.329Z,11.12
2019-04-07T15:08:14.049Z,11.55
2019-04-07T15:13:23.909Z,13.58
2019-04-07T15:18:27.598Z,12.45
2019-04-07T15:23:33.378Z,19.75
2019-04-07T15:28:38.484Z,12.43
2019-04-07T15:33:43.493Z,15.30
2019-04-07T15:38:48.621Z,10.15
2019-04-07T15:43:54.980Z,14.07
2019-04-07T15:48:59.740Z,15.03
2019-04-07T15:54:04.517Z,15.20
2019-04-07T15:59:09.915Z,19.30
2019-04-07T16:04:16.018Z,11.55
2019-04-07T16:09:32.557Z,10.88
2019-04-07T16:14:27.407Z,12.53
2019-04-07T16:19:39.737Z,15.35
2019-04-07T16:24:39.397Z,20.43
2019-04-07T16:29:46.207Z,19.32
2019-04-07T16:34:51.916Z,13.50
2019-04-07T16:39:56.849Z,16.90
2019-04-07T16:45:01.934Z,15.40
2019-04-07T16:50:07.624Z,23.70
2019-04-07T16:55:32.707Z,16.40
2019-04-07T17:00:38.518Z,22.45
2019-04-07T17:05:45.095Z,23.40
2019-04-07T17:10:50.704Z,20.68
2019-04-07T17:15:55.555Z,23.35
2019-04-07T17:21:00.426Z,26.77
2019-04-07T17:26:06.770Z,14.17
2019-04-07T17:31:11.944Z,11.53
2019-04-07T17:36:20.119Z,16.13
2019-04-07T17:41:23.492Z,16.07
2019-04-07T17:46:36.144Z,14.53
2019-04-07T17:51:43.862Z,14.40
2019-04-07T17:57:01.993Z,15.27
2019-04-07T18:02:19.167Z,19.23
2019-04-07T18:07:37.823Z,15.30
2019-04-07T18:12:49.940Z,15.40
2019-04-07T18:17:57.667Z,14.97
2019-04-07T18:23:12.922Z,21.40
2019-04-07T18:28:26.098Z,25.47
2019-04-07T18:33:53.358Z,29.67
2019-04-07T18:39:04.646Z,22.20
2019-04-07T18:44:15.128Z,20.87
2019-04-07T18:49:21.534Z,21.47
2019-04-07T18:54:44.446Z,22.77
2019-04-07T19:00:00.823Z,19.27
2019-04-07T19:05:05.083Z,19.73
2019-04-07T19:10:30.567Z,22.47
2019-04-07T19:15:45.994Z,20.40
2019-04-07T19:20:59.962Z,21.37
2019-04-07T19:26:06.406Z,23.30
2019-04-07T19:31:21.685Z,23.60
2019-04-07T19:36:36.858Z,21.23
2019-04-07T19:41:53.062Z,20.87
2019-04-07T19:47:04.383Z,23.00
2019-04-07T19:52:27.161Z,21.73
2019-04-07T19:57:36.520Z,27.83
2019-04-07T20:02:42.862Z,26.50
2019-04-07T20:08:05.681Z,38.33
2019-04-07T20:13:12.243Z,26.03
2019-04-07T20:18:26.936Z,26.20
2019-04-07T20:23:48.682Z,33.43
2019-04-07T20:28:55.073Z,23.07
2019-04-07T20:34:13.940Z,26.93
2019-04-07T20:39:27.408Z,28.53
2019-04-07T20:44:35.747Z,24.47
2019-04-07T20:49:54.422Z,24.30
2019-04-07T20:55:19.251Z,23.87
2019-04-07T21:00:26.802Z,29.73
2019-04-07T21:05:46.151Z,34.93
2019-04-07T21:10:52.671Z,31.50
2019-04-07T21:15:59.464Z,36.83
2019-04-07T21:21:07.046Z,31.97
2019-04-07T21:26:13.915Z,32.17
2019-04-07T21:31:21.354Z,32.30
2019-04-07T21:36:32.208Z,34.90
2019-04-07T21:41:54.905Z,24.03
2019-04-07T21:47:13.956Z,32.03
2019-04-07T21:52:26.634Z,28.03
2019-04-07T21:57:39.616Z,29.93
2019-04-07T22:02:51.830Z,36.33
2019-04-07T22:08:08.009Z,29.30
2019-04-07T22:13:08.344Z,28.67
2019-04-07T22:18:15.223Z,31.40
2019-04-07T22:23:21.459Z,35.03
2019-04-07T22:28:28.478Z,26.03
2019-04-07T22:33:33.756Z,23.73
2019-04-07T22:38:38.955Z,31.20
2019-04-07T22:43:47.790Z,25.77
2019-04-07T22:48:50.252Z,35.07
2019-04-07T22:53:57.558Z,33.30
2019-04-07T22:59:01.597Z,35.53
2019-04-07T23:04:06.800Z,36.07
2019-04-07T23:09:11.514Z,38.07
2019-04-07T23:14:16.291Z,31.33
2019-04-07T23:19:21.097Z,34.27
2019-04-07T23:24:26.770Z,28.30
2019-04-07T23:29:32.518Z,29.57
2019-04-07T23:34:37.206Z,37.27
2019-04-07T23:39:42.009Z,40.90
2019-04-07T23:44:47.791Z,40.87
2019-04-07T23:49:52.678Z,29.70
2019-04-07T23:54:57.394Z,29.23
